createdAt,value
2022-08-31T00:06:46.485Z,23.68
2022-08-31T00:09:22.182Z,24.24
2022-08-31T00:11:50.356Z,23.94
2022-08-31T00:14:19.624Z,24.00
2022-08-31T00:16:47.876Z,24.30
2022-08-31T00:19:16.332Z,24.21
2022-08-31T00:21:45.952Z,24.31
2022-08-31T00:24:14.982Z,23.88
2022-08-31T00:26:43.206Z,24.29
2022-08-31T00:29:11.213Z,23.42
2022-08-31T00:31:39.133Z,24.22
2022-08-31T00:34:07.426Z,24.22
2022-08-31T00:36:35.589Z,24.20
2022-08-31T00:39:10.112Z,23.96
2022-08-31T00:41:39.030Z,23.79
2022-08-31T00:44:09.959Z,24.01
2022-08-31T00:46:39.739Z,22.70
2022-08-31T00:49:10.986Z,21.80
2022-08-31T00:51:40.762Z,22.44
2022-08-31T00:54:14.431Z,23.92
2022-08-31T00:56:44.850Z,23.72
2022-08-31T00:59:15.253Z,23.15
2022-08-31T01:01:44.338Z,21.44
2022-08-31T01:04:12.348Z,23.69
2022-08-31T01:06:40.770Z,23.82
2022-08-31T01:09:10.356Z,22.73
2022-08-31T01:11:38.803Z,22.75
2022-08-31T01:14:08.300Z,23.40
2022-08-31T01:16:37.954Z,22.75
2022-08-31T01:19:07.876Z,23.15
2022-08-31T01:21:39.196Z,23.55
2022-08-31T01:24:08.714Z,23.26
2022-08-31T01:26:36.728Z,22.60
2022-08-31T01:29:06.185Z,23.22
2022-08-31T01:31:35.891Z,21.73
2022-08-31T01:34:07.451Z,23.06
2022-08-31T01:36:35.896Z,23.37
2022-08-31T02:36:25.823Z,21.96
2022-08-31T02:38:53.775Z,22.04
2022-08-31T02:41:21.926Z,20.38
2022-08-31T02:43:49.992Z,20.91
2022-08-31T02:46:18.097Z,21.85
2022-08-31T02:48:46.265Z,21.92
2022-08-31T02:51:14.543Z,22.39
2022-08-31T02:53:44.024Z,20.92
2022-08-31T02:56:14.357Z,22.32
2022-08-31T02:58:42.654Z,21.69
2022-08-31T03:01:10.783Z,20.86
2022-08-31T03:03:38.985Z,21.36
2022-08-31T03:06:08.133Z,21.89
2022-08-31T03:08:36.138Z,20.56
2022-08-31T03:11:05.517Z,22.29
2022-08-31T03:13:33.495Z,22.28
2022-08-31T03:16:01.637Z,22.26
2022-08-31T03:18:29.656Z,22.23
2022-08-31T03:20:57.631Z,22.23
2022-08-31T03:23:26.002Z,22.23
2022-08-31T03:25:54.176Z,21.25
2022-08-31T03:28:23.921Z,22.12
2022-08-31T03:30:52.847Z,20.71
2022-08-31T03:33:20.958Z,20.30
2022-08-31T03:35:49.182Z,22.10
2022-08-31T04:05:35.077Z,19.53
2022-08-31T04:08:03.191Z,20.45
2022-08-31T04:10:31.145Z,21.73
2022-08-31T04:12:59.166Z,21.74
2022-08-31T04:15:27.210Z,20.56
2022-08-31T04:17:57.665Z,19.85
2022-08-31T04:20:30.107Z,19.84
2022-08-31T04:23:00.627Z,20.66
2022-08-31T04:25:29.340Z,19.46
2022-08-31T04:27:58.359Z,21.14
2022-08-31T04:30:26.738Z,19.83
2022-08-31T04:32:55.068Z,21.35
2022-08-31T04:35:23.625Z,21.64
2022-08-31T04:37:52.005Z,21.63
2022-08-31T04:40:25.965Z,20.39
2022-08-31T04:42:54.913Z,21.08
2022-08-31T04:45:24.546Z,20.25
2022-08-31T04:47:52.937Z,19.68
2022-08-31T04:50:21.383Z,21.48
2022-08-31T04:53:01.114Z,21.47
2022-08-31T04:55:33.900Z,20.36
2022-08-31T04:58:03.808Z,20.79
2022-08-31T05:00:32.446Z,19.45
2022-08-31T05:03:01.116Z,20.54
2022-08-31T05:05:29.647Z,20.39
2022-08-31T05:07:58.163Z,20.17
2022-08-31T05:12:55.228Z,21.37
2022-08-31T05:15:23.038Z,21.37
2022-08-31T05:17:51.973Z,21.35
2022-08-31T05:20:19.783Z,21.35
2022-08-31T05:22:47.750Z,21.33
2022-08-31T05:25:15.696Z,21.27
2022-08-31T05:27:43.773Z,21.29
2022-08-31T05:30:13.918Z,21.29
2022-08-31T05:32:42.080Z,21.26
2022-08-31T05:35:09.940Z,21.29
2022-08-31T05:37:37.867Z,21.31
2022-08-31T05:40:06.447Z,21.30
2022-08-31T05:42:34.438Z,21.32
2022-08-31T05:45:02.305Z,21.32
2022-08-31T05:47:31.592Z,21.32
2022-08-31T05:49:59.464Z,21.19
2022-08-31T05:52:27.657Z,21.34
2022-08-31T05:54:55.738Z,21.36
2022-08-31T05:57:26.656Z,21.36
2022-08-31T05:59:54.935Z,21.41
2022-08-31T06:02:23.083Z,21.33
2022-08-31T06:04:58.569Z,21.45
2022-08-31T06:07:26.871Z,21.54
2022-08-31T06:09:55.455Z,21.62
2022-08-31T06:12:25.657Z,21.66
2022-08-31T06:14:53.891Z,21.67
2022-08-31T06:17:21.859Z,21.71
2022-08-31T06:19:51.532Z,21.87
2022-08-31T06:22:38.588Z,19.55
2022-08-31T06:25:10.464Z,22.31
2022-08-31T06:27:50.428Z,22.40
2022-08-31T06:30:22.089Z,21.66
2022-08-31T06:32:50.161Z,22.96
2022-08-31T06:35:39.152Z,22.10
2022-08-31T06:38:11.219Z,21.83
2022-08-31T06:40:41.439Z,22.32
2022-08-31T06:43:12.575Z,23.07
2022-08-31T06:45:41.756Z,22.70
2022-08-31T06:48:09.756Z,23.09
2022-08-31T06:50:39.065Z,23.26
2022-08-31T06:53:09.746Z,23.34
2022-08-31T06:55:37.607Z,23.52
2022-08-31T06:58:05.597Z,23.76
2022-08-31T07:00:33.849Z,23.90
2022-08-31T07:03:23.017Z,24.06
2022-08-31T07:05:52.173Z,24.53
2022-08-31T07:08:21.820Z,25.22
2022-08-31T07:10:51.247Z,25.88
2022-08-31T07:13:19.644Z,26.23
2022-08-31T07:15:47.922Z,26.93
2022-08-31T07:18:16.249Z,27.43
2022-08-31T07:20:44.215Z,27.77
2022-08-31T07:23:12.200Z,27.75
2022-08-31T07:25:41.785Z,27.67
2022-08-31T07:28:11.826Z,27.80
2022-08-31T07:30:42.268Z,27.75
2022-08-31T07:33:10.921Z,27.62
2022-08-31T07:35:38.806Z,27.48
2022-08-31T07:38:24.432Z,27.11
2022-08-31T07:41:11.688Z,27.70
2022-08-31T07:43:39.558Z,28.34
2022-08-31T07:46:07.713Z,28.87
2022-08-31T07:48:36.278Z,29.38
2022-08-31T07:51:04.175Z,29.87
2022-08-31T07:53:32.287Z,30.38
2022-08-31T07:56:01.611Z,30.76
2022-08-31T07:58:29.500Z,30.96
2022-08-31T08:01:03.023Z,31.01
2022-08-31T08:03:30.922Z,31.12
2022-08-31T08:05:58.806Z,31.05
2022-08-31T08:08:29.409Z,30.75
2022-08-31T08:11:01.273Z,31.22
2022-08-31T08:13:30.057Z,31.53
2022-08-31T08:15:57.968Z,31.95
2022-08-31T08:18:28.991Z,32.44
2022-08-31T08:20:56.866Z,32.96
2022-08-31T08:23:26.861Z,33.38
2022-08-31T08:25:56.169Z,33.73
2022-08-31T08:28:46.997Z,33.98
2022-08-31T08:31:15.684Z,34.14
2022-08-31T08:33:43.855Z,34.30
2022-08-31T08:36:11.718Z,34.20
2022-08-31T08:38:42.413Z,34.10
2022-08-31T08:41:13.699Z,33.77
2022-08-31T08:43:43.901Z,33.37
2022-08-31T08:46:31.684Z,33.00
2022-08-31T08:49:03.655Z,32.32
2022-08-31T08:51:35.119Z,32.46
2022-08-31T08:54:05.715Z,32.49
2022-08-31T08:56:34.374Z,32.83
2022-08-31T08:59:02.285Z,33.02
2022-08-31T09:01:32.047Z,33.27
2022-08-31T09:04:03.939Z,33.05
2022-08-31T09:06:40.459Z,33.62
2022-08-31T09:09:24.771Z,34.12
2022-08-31T09:11:56.576Z,35.17
2022-08-31T09:14:34.179Z,35.71
2022-08-31T09:17:05.410Z,36.62
2022-08-31T09:19:53.772Z,37.42
2022-08-31T09:22:21.693Z,38.30
2022-08-31T09:24:56.143Z,38.50
2022-08-31T09:27:40.860Z,38.78
2022-08-31T09:30:10.386Z,39.10
2022-08-31T09:32:39.823Z,38.64
2022-08-31T09:35:09.193Z,38.04
2022-08-31T09:37:40.512Z,37.54
2022-08-31T09:40:15.643Z,37.36
2022-08-31T09:42:43.812Z,37.54
2022-08-31T09:45:26.858Z,37.33
2022-08-31T09:48:01.254Z,37.50
2022-08-31T09:50:35.513Z,38.39
2022-08-31T09:53:38.502Z,38.89
2022-08-31T09:56:17.785Z,39.13
2022-08-31T09:58:47.792Z,39.72
2022-08-31T10:01:20.853Z,40.27
2022-08-31T10:03:50.273Z,40.68
2022-08-31T10:06:46.586Z,41.45
2022-08-31T10:09:28.708Z,41.73
2022-08-31T10:11:59.402Z,41.30
2022-08-31T10:14:31.540Z,41.75
2022-08-31T10:17:02.783Z,42.14
2022-08-31T10:19:54.781Z,42.32
2022-08-31T10:22:29.297Z,42.41
2022-08-31T10:25:06.545Z,42.82
2022-08-31T10:27:38.480Z,43.43
2022-08-31T10:30:09.404Z,43.64
2022-08-31T10:32:38.596Z,43.01
2022-08-31T10:35:12.819Z,42.86
2022-08-31T10:37:47.209Z,42.53
2022-08-31T10:40:18.075Z,42.82
2022-08-31T10:42:50.314Z,43.93
2022-08-31T10:45:25.352Z,45.05
2022-08-31T10:47:55.631Z,45.57
2022-08-31T10:50:28.904Z,46.02
2022-08-31T10:53:02.949Z,46.36
2022-08-31T10:55:36.347Z,46.29
2022-08-31T10:58:16.155Z,45.76
2022-08-31T11:00:49.354Z,44.31
2022-08-31T11:03:20.739Z,43.62
2022-08-31T11:05:52.744Z,43.22
2022-08-31T11:08:56.193Z,43.68
2022-08-31T11:11:31.640Z,44.44
2022-08-31T11:14:29.219Z,43.59
2022-08-31T11:17:11.990Z,43.15
2022-08-31T11:20:00.061Z,42.08
2022-08-31T11:22:53.253Z,40.81
2022-08-31T11:25:30.364Z,39.75
2022-08-31T11:28:00.135Z,38.75
2022-08-31T11:30:29.982Z,38.02
2022-08-31T11:33:00.367Z,37.39
2022-08-31T11:36:03.867Z,36.89
2022-08-31T11:38:54.765Z,36.35
2022-08-31T11:41:36.953Z,35.98
2022-08-31T11:44:05.070Z,35.44
2022-08-31T11:46:50.733Z,35.69
2022-08-31T11:49:46.861Z,35.94
2022-08-31T11:52:38.865Z,35.42
2022-08-31T11:55:21.081Z,34.65
2022-08-31T11:58:27.189Z,34.72
2022-08-31T12:00:58.720Z,34.57
2022-08-31T12:03:53.877Z,34.29
2022-08-31T12:07:07.728Z,33.79
2022-08-31T12:10:13.039Z,33.26
2022-08-31T12:13:07.496Z,32.83
2022-08-31T12:15:41.102Z,32.57
2022-08-31T12:18:17.069Z,32.56
2022-08-31T12:21:12.914Z,32.61
2022-08-31T12:23:45.448Z,32.78
2022-08-31T12:26:34.426Z,32.81
2022-08-31T12:29:22.923Z,32.92
2022-08-31T12:32:23.756Z,33.04
2022-08-31T12:34:59.443Z,33.00
2022-08-31T12:37:28.897Z,32.93
2022-08-31T12:40:20.236Z,33.02
2022-08-31T12:42:57.399Z,32.91
2022-08-31T12:45:42.107Z,32.90
2022-08-31T12:48:16.028Z,32.85
2022-08-31T12:50:45.207Z,32.90
2022-08-31T12:53:29.852Z,33.02
2022-08-31T12:55:59.712Z,32.84
2022-08-31T12:58:47.152Z,32.84
2022-08-31T13:01:18.980Z,32.62
2022-08-31T13:03:54.102Z,32.60
2022-08-31T13:06:25.419Z,32.38
2022-08-31T13:08:54.221Z,32.36
2022-08-31T13:11:33.130Z,32.42
2022-08-31T13:14:13.649Z,32.58
2022-08-31T13:16:44.365Z,32.63
2022-08-31T13:19:19.273Z,32.44
2022-08-31T13:21:51.395Z,32.48
2022-08-31T13:24:25.734Z,32.65
2022-08-31T13:27:08.079Z,32.72
2022-08-31T13:29:44.087Z,32.63
2022-08-31T13:32:14.952Z,32.49
2022-08-31T13:34:43.230Z,32.69
2022-08-31T13:37:15.277Z,32.72
2022-08-31T13:39:44.856Z,32.69
2022-08-31T13:42:23.462Z,32.56
2022-08-31T13:44:54.703Z,32.37
2022-08-31T13:47:27.141Z,32.12
2022-08-31T13:49:57.428Z,31.94
2022-08-31T13:52:27.314Z,31.70
2022-08-31T13:55:01.899Z,31.65
2022-08-31T13:57:32.869Z,31.69
2022-08-31T14:00:38.139Z,31.77
2022-08-31T14:03:32.094Z,31.81
2022-08-31T14:06:24.056Z,31.79
2022-08-31T14:08:54.112Z,31.73
2022-08-31T14:11:22.167Z,31.74
2022-08-31T14:13:50.411Z,31.79
2022-08-31T14:16:21.452Z,31.74
2022-08-31T14:18:55.338Z,31.53
2022-08-31T14:21:28.919Z,31.65
2022-08-31T14:24:01.127Z,31.70
2022-08-31T14:26:31.568Z,31.61
2022-08-31T14:29:01.213Z,31.48
2022-08-31T14:31:32.763Z,31.36
2022-08-31T14:34:09.065Z,31.27
2022-08-31T14:36:52.922Z,31.26
2022-08-31T14:39:26.729Z,31.34
2022-08-31T14:41:55.361Z,31.31
2022-08-31T14:44:26.354Z,31.35
2022-08-31T14:46:54.308Z,31.31
2022-08-31T14:49:24.814Z,31.09
2022-08-31T14:51:52.668Z,30.87
2022-08-31T14:54:20.760Z,30.73
2022-08-31T14:56:50.322Z,30.62
2022-08-31T14:59:21.588Z,30.57
2022-08-31T15:04:25.203Z,30.44
2022-08-31T15:06:57.019Z,30.37
2022-08-31T15:09:24.993Z,30.31
2022-08-31T15:11:53.022Z,30.19
2022-08-31T15:14:22.335Z,30.20
2022-08-31T15:16:52.205Z,30.23
2022-08-31T15:19:20.110Z,30.27
2022-08-31T15:21:58.707Z,30.45
2022-08-31T15:24:31.103Z,30.63
2022-08-31T15:27:00.049Z,30.66
2022-08-31T15:29:30.503Z,30.65
2022-08-31T15:31:58.972Z,30.53
2022-08-31T15:34:30.285Z,30.52
2022-08-31T15:37:02.148Z,30.51
2022-08-31T15:39:35.811Z,30.56
2022-08-31T15:42:09.175Z,30.59
2022-08-31T15:44:37.365Z,30.58
2022-08-31T15:47:23.220Z,30.50
2022-08-31T15:49:51.165Z,30.39
2022-08-31T15:52:20.709Z,30.31
2022-08-31T15:54:50.530Z,30.29
2022-08-31T15:57:19.092Z,30.26
2022-08-31T15:59:47.399Z,30.26
2022-08-31T16:02:20.507Z,30.27
2022-08-31T16:04:50.816Z,30.29
2022-08-31T16:07:22.775Z,30.27
2022-08-31T16:09:50.874Z,30.31
2022-08-31T16:12:20.181Z,30.31
2022-08-31T16:14:51.673Z,30.30
2022-08-31T16:17:26.045Z,30.15
2022-08-31T16:19:54.246Z,30.09
2022-08-31T16:22:25.741Z,30.09
2022-08-31T16:24:59.091Z,30.00
2022-08-31T16:27:27.081Z,29.83
2022-08-31T16:29:57.481Z,29.79
2022-08-31T16:32:27.849Z,29.74
2022-08-31T16:34:56.789Z,29.70
2022-08-31T16:37:26.261Z,29.61
2022-08-31T16:39:54.449Z,29.60
2022-08-31T16:42:22.468Z,29.51
2022-08-31T16:44:50.751Z,29.48
2022-08-31T16:47:19.188Z,29.39
2022-08-31T16:49:46.959Z,29.35
2022-08-31T16:52:19.189Z,29.13
2022-08-31T16:54:51.178Z,29.19
2022-08-31T16:57:24.265Z,29.16
2022-08-31T16:59:52.473Z,29.09
2022-08-31T17:02:20.903Z,29.02
2022-08-31T17:04:52.511Z,29.04
2022-08-31T17:07:21.902Z,29.01
2022-08-31T17:09:51.449Z,28.95
2022-08-31T17:12:21.780Z,28.93
2022-08-31T17:14:52.828Z,28.88
2022-08-31T17:17:22.148Z,28.75
2022-08-31T17:19:50.306Z,28.75
2022-08-31T17:22:28.358Z,28.68
2022-08-31T17:25:03.212Z,28.50
2022-08-31T17:27:32.431Z,28.51
2022-08-31T17:30:01.197Z,28.40
2022-08-31T17:32:29.627Z,28.32
2022-08-31T17:34:57.811Z,28.02
2022-08-31T17:37:27.907Z,28.19
2022-08-31T17:39:56.498Z,28.10
2022-08-31T17:42:28.179Z,28.00
2022-08-31T17:44:56.534Z,27.94
2022-08-31T17:47:25.691Z,27.65
2022-08-31T17:49:54.313Z,27.80
2022-08-31T17:52:23.820Z,27.74
2022-08-31T17:54:52.430Z,27.65
2022-08-31T17:57:22.428Z,27.58
2022-08-31T17:59:51.940Z,27.54
2022-08-31T18:02:21.478Z,27.48
2022-08-31T18:04:49.747Z,27.45
2022-08-31T18:07:18.251Z,27.36
2022-08-31T18:09:47.180Z,27.28
2022-08-31T18:12:15.619Z,27.19
2022-08-31T18:14:43.738Z,27.14
2022-08-31T18:17:16.402Z,26.74
2022-08-31T18:19:44.978Z,27.02
2022-08-31T18:22:14.651Z,26.97
2022-08-31T18:24:43.085Z,26.90
2022-08-31T18:27:12.014Z,26.84
2022-08-31T18:29:40.223Z,26.80
2022-08-31T18:32:08.586Z,26.74
2022-08-31T18:34:40.243Z,26.69
2022-08-31T18:37:09.511Z,26.64
2022-08-31T18:40:00.150Z,26.54
2022-08-31T18:42:46.285Z,26.49
2022-08-31T18:45:18.806Z,26.39
2022-08-31T18:48:07.119Z,26.39
2022-08-31T18:50:38.708Z,26.32
2022-08-31T18:53:08.177Z,26.29
2022-08-31T18:55:41.198Z,26.20
2022-08-31T18:58:09.656Z,26.19
2022-08-31T19:00:37.956Z,26.15
2022-08-31T19:03:06.939Z,26.11
2022-08-31T19:05:35.981Z,25.99
2022-08-31T19:08:06.257Z,26.07
2022-08-31T19:10:34.918Z,26.05
2022-08-31T19:13:07.345Z,25.99
2022-08-31T19:15:39.748Z,25.97
2022-08-31T19:18:08.067Z,25.95
2022-08-31T19:20:36.802Z,25.91
2022-08-31T19:23:06.366Z,25.87
2022-08-31T19:25:34.479Z,25.84
2022-08-31T19:28:06.996Z,25.82
2022-08-31T19:30:35.390Z,25.78
2022-08-31T19:33:07.955Z,25.46
2022-08-31T19:35:36.634Z,25.73
2022-08-31T19:38:06.955Z,25.60
2022-08-31T19:40:38.967Z,25.63
2022-08-31T19:46:09.398Z,25.51
2022-08-31T19:48:46.189Z,25.48
2022-08-31T19:51:15.447Z,25.29
2022-08-31T19:53:45.485Z,25.44
2022-08-31T19:56:16.558Z,25.42
2022-08-31T19:58:47.121Z,25.40
2022-08-31T20:01:15.272Z,25.40
2022-08-31T20:03:43.328Z,25.38
2022-08-31T20:06:13.581Z,25.36
2022-08-31T20:08:41.762Z,25.36
2022-08-31T20:11:11.819Z,25.35
2022-08-31T20:13:40.588Z,25.36
2022-08-31T20:16:08.914Z,25.34
2022-08-31T20:18:38.529Z,25.36
2022-08-31T20:21:17.490Z,25.24
2022-08-31T20:23:45.570Z,25.32
2022-08-31T20:26:14.991Z,25.33
2022-08-31T20:28:43.081Z,25.33
2022-08-31T20:31:11.949Z,25.30
2022-08-31T20:33:40.169Z,25.30
2022-08-31T20:36:18.515Z,25.29
2022-08-31T20:38:46.800Z,25.26
2022-08-31T20:41:16.413Z,25.21
2022-08-31T20:43:44.777Z,25.19
2022-08-31T20:46:33.535Z,25.15
2022-08-31T20:49:19.156Z,25.07
2022-08-31T20:51:47.435Z,25.01
2022-08-31T20:54:15.396Z,24.94
2022-08-31T20:56:44.706Z,24.87
2022-08-31T20:59:12.672Z,24.84
2022-08-31T21:04:15.690Z,24.67
2022-08-31T21:06:45.548Z,24.61
2022-08-31T21:09:13.551Z,24.42
2022-08-31T21:11:43.619Z,24.50
2022-08-31T21:14:12.919Z,24.22
2022-08-31T21:16:41.486Z,24.35
2022-08-31T21:19:12.447Z,24.40
2022-08-31T21:21:41.207Z,24.21
2022-08-31T21:24:11.524Z,24.32
2022-08-31T21:26:41.075Z,24.00
2022-08-31T21:29:10.546Z,24.02
2022-08-31T21:31:43.680Z,24.04
2022-08-31T21:34:18.032Z,23.80
2022-08-31T21:36:46.320Z,24.08
2022-08-31T21:39:16.037Z,24.06
2022-08-31T21:41:44.296Z,24.01
2022-08-31T21:44:12.924Z,23.95
2022-08-31T21:46:44.805Z,23.58
2022-08-31T21:49:15.022Z,23.85
2022-08-31T21:51:45.636Z,23.79
2022-08-31T21:54:14.235Z,23.76
2022-08-31T21:56:44.888Z,23.70
2022-08-31T21:59:13.189Z,23.65
2022-08-31T22:01:42.804Z,23.62
2022-08-31T22:04:10.942Z,23.60
2022-08-31T22:06:42.715Z,23.53
2022-08-31T22:09:11.973Z,23.51
2022-08-31T22:11:41.612Z,23.47
2022-08-31T22:14:11.134Z,23.42
2022-08-31T22:16:39.534Z,23.39
2022-08-31T22:19:12.152Z,23.35
2022-08-31T22:21:42.101Z,23.09
2022-08-31T22:24:11.973Z,23.31
2022-08-31T22:26:54.684Z,23.30
2022-08-31T22:29:23.826Z,23.30
2022-08-31T22:31:51.992Z,23.29
2022-08-31T22:34:21.558Z,23.29
2022-08-31T22:36:51.028Z,23.16
2022-08-31T22:39:20.637Z,23.31
2022-08-31T22:41:48.723Z,23.22
2022-08-31T22:44:18.013Z,23.30
2022-08-31T22:46:46.286Z,23.32
2022-08-31T22:49:15.015Z,23.32
2022-08-31T22:51:48.368Z,23.29
2022-08-31T22:54:17.475Z,23.32
2022-08-31T22:56:45.627Z,23.34
2022-08-31T22:59:14.610Z,23.37
2022-08-31T23:01:44.218Z,23.36
2022-08-31T23:04:14.692Z,23.35
2022-08-31T23:06:44.184Z,23.37
2022-08-31T23:09:12.260Z,23.38
2022-08-31T23:11:40.802Z,23.33
2022-08-31T23:14:10.310Z,23.15
2022-08-31T23:16:39.850Z,23.03
2022-08-31T23:19:11.335Z,23.34
2022-08-31T23:21:43.145Z,23.32
2022-08-31T23:24:12.622Z,23.07
2022-08-31T23:26:40.796Z,23.23
2022-08-31T23:29:10.022Z,23.08
2022-08-31T23:31:38.726Z,22.94
2022-08-31T23:34:09.737Z,22.80
2022-08-31T23:36:38.359Z,22.77
2022-08-31T23:39:07.452Z,23.09
2022-08-31T23:41:38.998Z,23.04
2022-08-31T23:47:53.491Z,22.96
2022-08-31T23:50:21.211Z,22.92
2022-08-31T23:52:52.223Z,22.92
2022-08-31T23:55:21.822Z,22.89
2022-08-31T23:57:51.619Z,22.83
